createdAt,value
2023-03-05T05:46:51.698Z,100994.16
2023-03-05T05:49:22.239Z,100998.94
2023-03-05T05:51:50.932Z,100990.56
2023-03-05T05:54:19.020Z,100995.31
2023-03-05T05:56:47.181Z,100992.53
2023-03-05T05:59:15.410Z,100994.47
2023-03-05T06:01:43.565Z,100994.16
2023-03-05T06:04:13.170Z,100996.94
2023-03-05T06:06:41.409Z,100994.16
2023-03-05T06:09:09.815Z,100994.16
2023-03-05T06:11:38.550Z,100991.59
2023-03-05T06:14:07.782Z,100989.38
2023-03-05T06:16:36.149Z,100995.78
2023-03-05T06:19:05.136Z,100991.81
2023-03-05T06:21:34.758Z,100988.56
2023-03-05T06:24:02.979Z,100991.81
2023-03-05T06:26:31.215Z,100984.59
2023-03-05T06:28:59.404Z,100986.94
2023-03-05T06:31:27.836Z,100990.19
2023-03-05T06:33:56.116Z,100989.38
2023-03-05T06:36:24.532Z,100991.00
2023-03-05T06:38:54.439Z,100995.78
2023-03-05T06:41:23.625Z,100998.56
2023-03-05T06:43:51.825Z,100991.00
2023-03-05T06:46:20.483Z,100984.59
2023-03-05T06:48:49.151Z,100981.81
2023-03-05T06:51:17.785Z,100991.81
2023-03-05T06:53:48.310Z,100996.59
2023-03-05T06:56:20.147Z,100986.22
2023-03-05T06:58:49.238Z,100989.00
2023-03-05T07:01:18.054Z,100992.63
2023-03-05T07:03:46.680Z,100993.44
2023-03-05T07:06:15.951Z,101000.66
2023-03-05T07:08:44.944Z,100994.25
2023-03-05T07:11:13.293Z,100996.22
2023-03-05T07:13:43.669Z,100999.03
2023-03-05T07:16:12.813Z,100989.47
2023-03-05T07:18:41.193Z,100995.06
2023-03-05T07:21:11.392Z,100997.41
2023-03-05T07:23:39.789Z,100995.41
2023-03-05T07:26:08.663Z,100989.47
2023-03-05T07:28:37.162Z,100993.44
2023-03-05T07:31:07.681Z,100993.44
2023-03-05T07:33:37.836Z,100989.47
2023-03-05T07:36:06.389Z,100997.03
2023-03-05T07:38:34.471Z,100982.97
2023-03-05T07:41:04.009Z,100992.25
2023-03-05T07:43:32.041Z,100977.84
2023-03-05T07:46:00.409Z,100977.47
2023-03-05T07:48:30.950Z,100978.28
2023-03-05T07:51:03.109Z,100983.88
2023-03-05T07:53:32.123Z,100985.53
2023-03-05T07:56:01.167Z,100984.72
2023-03-05T07:58:29.293Z,100989.13
2023-03-05T08:00:58.181Z,100979.94
2023-03-05T08:03:26.342Z,100982.25
2023-03-05T08:05:55.835Z,100986.66
2023-03-05T08:08:23.954Z,100983.88
2023-03-05T08:10:52.490Z,100987.03
2023-03-05T08:13:21.418Z,100985.06
2023-03-05T08:15:50.188Z,100983.88
2023-03-05T08:18:21.680Z,100985.53
2023-03-05T08:24:43.231Z,100980.75
2023-03-05T08:31:02.608Z,100960.25
2023-03-05T08:33:48.297Z,100979.13
2023-03-05T08:36:28.994Z,100959.56
2023-03-05T08:39:13.005Z,100963.19
2023-03-05T08:41:49.475Z,100966.78
2023-03-05T08:44:18.688Z,100960.38
2023-03-05T08:46:48.549Z,100952.00
2023-03-05T08:49:17.884Z,100956.78
2023-03-05T08:51:46.546Z,100945.59
2023-03-05T08:54:15.498Z,100944.75
2023-03-05T08:56:46.408Z,100946.41
2023-03-05T08:59:15.428Z,100947.91
2023-03-05T09:01:48.923Z,100942.44
2023-03-05T09:08:17.713Z,100925.69
2023-03-05T09:18:42.992Z,100932.88
2023-03-05T09:21:57.191Z,100925.69
2023-03-05T09:24:34.292Z,100932.06
2023-03-05T09:27:16.331Z,100931.25
2023-03-05T09:34:08.224Z,100924.88
2023-03-05T09:36:45.512Z,100925.69
2023-03-05T09:39:17.915Z,100921.72
2023-03-05T09:42:13.229Z,100926.47
2023-03-05T09:44:44.255Z,100913.69
2023-03-05T09:47:18.184Z,100910.88
2023-03-05T09:49:49.737Z,100920.09
2023-03-05T09:52:18.200Z,100910.53
2023-03-05T09:54:46.902Z,100910.53
2023-03-05T09:57:17.676Z,100910.53
2023-03-05T09:59:51.036Z,100907.28
2023-03-05T10:02:20.530Z,100908.91
2023-03-05T10:04:55.436Z,100914.50
2023-03-05T10:07:27.049Z,100914.50
2023-03-05T10:13:29.691Z,100906.13
2023-03-05T10:16:04.405Z,100892.13
2023-03-05T10:18:36.815Z,100897.72
2023-03-05T10:23:57.036Z,100899.34
2023-03-05T10:26:38.755Z,100892.13
2023-03-05T10:29:39.452Z,100893.75
2023-03-05T10:36:49.208Z,100871.41
2023-03-05T10:39:40.265Z,100869.78
2023-03-05T10:42:15.688Z,100871.41
2023-03-05T10:45:47.577Z,100871.41
2023-03-05T11:03:53.971Z,100843.47
2023-03-05T11:06:35.581Z,100839.50
2023-03-05T11:09:20.695Z,100836.69
2023-03-05T11:12:03.090Z,100839.50
2023-03-05T11:14:33.493Z,100833.91
2023-03-05T11:17:01.800Z,100838.69
2023-03-05T11:23:31.553Z,100835.53
2023-03-05T11:26:01.348Z,100836.34
2023-03-05T11:28:33.736Z,100831.13
2023-03-05T11:31:22.219Z,100823.53
2023-03-05T11:33:58.316Z,100827.50
2023-03-05T11:36:26.983Z,100828.31
2023-03-05T11:38:57.682Z,100824.72
2023-03-05T11:41:28.296Z,100813.91
2023-03-05T11:43:56.862Z,100821.09
2023-03-05T11:46:25.491Z,100811.56
2023-03-05T11:48:54.670Z,100809.94
2023-03-05T11:51:24.447Z,100815.53
2023-03-05T11:53:54.127Z,100809.94
2023-03-05T11:56:26.748Z,100798.75
2023-03-05T11:58:56.539Z,100800.38
2023-03-05T12:01:25.397Z,100795.97
2023-03-05T12:03:53.999Z,100798.31
2023-03-05T12:06:24.213Z,100794.78
2023-03-05T12:08:53.799Z,100796.78
2023-03-05T12:11:26.687Z,100783.59
2023-03-05T12:13:56.025Z,100774.06
2023-03-05T12:16:26.744Z,100778.03
2023-03-05T12:18:57.940Z,100774.06
2023-03-05T12:21:28.501Z,100768.81
2023-03-05T12:23:59.321Z,100756.84
2023-03-05T12:26:46.795Z,100759.63
2023-03-05T12:29:29.452Z,100755.66
2023-03-05T12:31:58.064Z,100756.47
2023-03-05T12:34:46.894Z,100754.50
2023-03-05T12:37:16.393Z,100755.66
2023-03-05T12:39:53.948Z,100737.72
2023-03-05T12:42:43.155Z,100739.72
2023-03-05T12:45:28.093Z,100742.06
2023-03-05T12:48:19.529Z,100736.09
2023-03-05T12:50:56.967Z,100741.31
2023-03-05T12:53:30.013Z,100746.09
2023-03-05T12:56:01.447Z,100753.34
2023-03-05T12:58:37.081Z,100747.28
2023-03-05T13:01:09.294Z,100753.34
2023-03-05T13:03:39.856Z,100742.16
2023-03-05T13:06:24.117Z,100741.31
2023-03-05T13:08:58.606Z,100745.78
2023-03-05T13:11:31.010Z,100747.75
2023-03-05T13:14:02.439Z,100742.16
2023-03-05T13:16:38.283Z,100742.97
2023-03-05T13:19:14.916Z,100736.56
2023-03-05T13:21:43.441Z,100730.16
2023-03-05T13:24:17.294Z,100736.56
2023-03-05T13:26:46.917Z,100737.38
2023-03-05T13:29:16.139Z,100738.19
2023-03-05T13:31:46.896Z,100732.59
2023-03-05T13:34:20.001Z,100731.78
2023-03-05T13:36:49.336Z,100738.19
2023-03-05T13:39:20.829Z,100731.00
2023-03-05T13:41:58.341Z,100733.78
2023-03-05T13:44:33.358Z,100751.25
2023-03-05T13:47:12.082Z,100760.53
2023-03-05T13:49:41.728Z,100761.72
2023-03-05T13:52:11.293Z,100764.84
2023-03-05T13:54:39.702Z,100765.66
2023-03-05T13:57:08.258Z,100759.63
2023-03-05T13:59:39.288Z,100756.41
2023-03-05T14:02:18.156Z,100750.81
2023-03-05T14:04:47.110Z,100748.03
2023-03-05T14:07:27.931Z,100738.47
2023-03-05T14:09:56.899Z,100734.84
2023-03-05T14:12:28.090Z,100731.69
2023-03-05T14:14:57.973Z,100731.31
2023-03-05T14:17:34.408Z,100730.16
2023-03-05T14:20:25.273Z,100727.38
2023-03-05T14:22:54.595Z,100720.94
2023-03-05T14:25:30.645Z,100723.91
2023-03-05T14:27:59.244Z,100722.03
2023-03-05T14:30:28.314Z,100714.09
2023-03-05T14:32:59.365Z,100708.16
2023-03-05T14:35:28.394Z,100709.44
2023-03-05T14:37:57.097Z,100698.69
2023-03-05T14:40:28.160Z,100708.34
2023-03-05T14:42:56.904Z,100706.38
2023-03-05T14:45:29.249Z,100711.47
2023-03-05T14:48:02.630Z,100707.19
2023-03-05T14:50:34.565Z,100706.81
2023-03-05T14:53:03.736Z,100712.84
2023-03-05T14:55:33.110Z,100708.44
2023-03-05T14:58:05.133Z,100702.84
2023-03-05T15:00:33.721Z,100701.22
2023-03-05T15:03:04.010Z,100702.84
2023-03-05T15:05:32.467Z,100698.88
2023-03-05T15:08:04.414Z,100698.88
2023-03-05T15:10:32.904Z,100693.66
2023-03-05T15:13:01.157Z,100690.03
2023-03-05T15:15:32.085Z,100688.44
2023-03-05T15:18:02.085Z,100687.25
2023-03-05T15:20:32.348Z,100682.09
2023-03-05T15:23:00.806Z,100688.88
2023-03-05T15:25:30.127Z,100688.53
2023-03-05T15:28:00.539Z,100686.06
2023-03-05T15:30:30.236Z,100688.88
2023-03-05T15:33:00.754Z,100687.69
2023-03-05T15:35:29.671Z,100690.97
2023-03-05T16:30:04.385Z,100660.75
2023-03-05T16:32:35.010Z,100659.94
2023-03-05T16:35:16.211Z,100664.72
2023-03-05T16:38:03.115Z,100669.84
2023-03-05T16:41:06.231Z,100669.13
2023-03-05T16:43:39.301Z,100666.72
2023-03-05T16:46:10.604Z,100665.91
2023-03-05T16:48:39.046Z,100668.22
2023-03-05T16:51:09.374Z,100673.81
2023-03-05T16:53:42.323Z,100657.06
2023-03-05T16:56:13.965Z,100666.63
2023-03-05T16:59:08.128Z,100675.00
2023-03-05T17:01:58.192Z,100672.19
2023-03-05T17:04:44.264Z,100674.19
2023-03-05T17:07:55.676Z,100672.19
2023-03-05T17:10:30.627Z,100675.44
2023-03-05T17:13:07.446Z,100667.41
2023-03-05T17:15:56.318Z,100667.41
2023-03-05T17:18:29.036Z,100661.84
2023-03-05T17:21:12.194Z,100665.44
2023-03-05T17:23:44.208Z,100666.25
2023-03-05T17:26:27.487Z,100662.63
2023-03-05T17:29:14.711Z,100660.31
2023-03-05T17:31:51.032Z,100659.13
2023-03-05T17:34:36.039Z,100669.84
2023-03-05T17:37:36.725Z,100666.72
2023-03-05T17:40:26.811Z,100677.09
2023-03-05T17:43:18.206Z,100664.25
2023-03-05T18:01:28.583Z,100645.06
2023-03-05T18:07:21.386Z,100637.97
2023-03-05T18:10:06.585Z,100644.38
2023-03-05T18:12:37.219Z,100644.38
2023-03-05T18:15:10.441Z,100632.38
2023-03-05T18:17:45.921Z,100644.38
2023-03-05T18:20:27.308Z,100643.56
2023-03-05T18:23:12.786Z,100641.19
2023-03-05T18:25:45.729Z,100645.16
2023-03-05T18:28:22.830Z,100634.00
2023-03-05T18:31:10.751Z,100622.81
2023-03-05T18:33:44.144Z,100625.25
2023-03-05T18:36:38.005Z,100624.44
2023-03-05T18:42:34.572Z,100624.44
2023-03-05T18:45:24.544Z,100612.47
2023-03-05T18:48:14.668Z,100606.06
2023-03-05T18:51:14.679Z,100606.06
2023-03-05T18:57:05.995Z,100606.88
2023-03-05T18:59:56.989Z,100602.09
2023-03-05T19:02:48.360Z,100602.91
2023-03-05T19:08:39.314Z,100598.59
2023-03-05T19:15:02.221Z,100594.63
2023-03-05T19:21:39.788Z,100588.13
2023-03-05T19:25:13.351Z,100587.88
2023-03-05T19:31:53.786Z,100578.69
2023-03-05T19:38:37.037Z,100581.19
